Time;durP1;ratioP1;P1;durP2;ratioP2;P2;SDS_P1;SDS_P2;PMS_P1;PMS_P2;Temp;Humidity;BMP_temperature;BMP_pressure;BME280_temperature;BME280_humidity;BME280_pressure;Samples;Min_cycle;Max_cycle;Signal;HPM_P1;HPM_P2
2021/08/07 00:00:46;;;;;;;7.78;2.20;;;;;;;14.92;63.56;98984.25;10449546;28;20140;-61
2021/08/07 00:05:48;;;;;;;6.78;2.10;;;;;;;14.87;63.38;98975.94;10448774;28;20168;-61
2021/08/07 00:10:49;;;;;;;4.93;1.83;;;;;;;14.85;63.35;98975.25;10448041;28;20044;-61
2021/08/07 00:15:51;;;;;;;7.32;2.15;;;;;;;14.81;63.24;98974.72;10449524;28;20092;-61
2021/08/07 00:20:53;;;;;;;6.93;2.10;;;;;;;14.74;63.42;98980.66;10448602;28;20414;-62
2021/08/07 00:25:55;;;;;;;7.68;2.50;;;;;;;14.49;63.81;98977.63;10446919;28;20497;-61
2021/08/07 00:30:56;;;;;;;13.60;2.95;;;;;;;14.30;64.11;98958.38;10448387;28;20580;-62
2021/08/07 00:35:58;;;;;;;5.70;2.50;;;;;;;14.32;64.35;98959.06;10448385;28;20084;-61
2021/08/07 00:41:00;;;;;;;5.50;2.03;;;;;;;14.27;64.67;98954.22;10447994;28;20132;-61
2021/08/07 00:46:02;;;;;;;10.63;2.90;;;;;;;14.12;64.54;98963.50;10448307;28;20041;-61
2021/08/07 00:51:04;;;;;;;9.88;2.72;;;;;;;14.10;64.58;98962.81;10447940;28;20052;-61
2021/08/07 00:56:06;;;;;;;7.35;2.80;;;;;;;14.13;64.82;98961.66;10409336;28;20112;-61
2021/08/07 01:01:12;;;;;;;8.13;2.50;;;;;;;14.15;64.70;98963.19;10447611;28;20128;-61
2021/08/07 01:06:17;;;;;;;9.48;2.20;;;;;;;14.10;64.71;98969.84;10447021;28;20052;-61
2021/08/07 01:11:30;;;;;;;6.03;2.13;;;;;;;14.09;64.82;98965.53;10410434;28;20490;-61
2021/08/07 01:16:38;;;;;;;5.00;2.10;;;;;;;14.10;64.50;98956.72;10405494;28;20124;-61
2021/08/07 01:21:56;;;;;;;6.43;2.50;;;;;;;13.92;64.91;98951.31;10403908;28;20085;-61
2021/08/07 01:27:23;;;;;;;8.40;2.97;;;;;;;13.88;65.10;98954.34;10405770;28;20045;-61
2021/08/07 01:32:28;;;;;;;4.25;2.85;;;;;;;13.92;65.16;98969.69;10405548;28;20052;-62
2021/08/07 01:37:30;;;;;;;6.93;3.10;;;;;;;14.06;64.88;98956.16;10408089;28;20044;-61
2021/08/07 01:42:32;;;;;;;6.13;2.20;;;;;;;14.16;64.94;98958.78;10445106;28;20082;-61
2021/08/07 01:47:48;;;;;;;6.93;2.10;;;;;;;14.27;65.12;98948.94;10431607;28;20073;-61
2021/08/07 01:52:57;;;;;;;6.97;2.40;;;;;;;14.39;64.39;98944.41;10404057;28;20049;-61
2021/08/07 01:58:17;;;;;;;11.68;3.30;;;;;;;14.23;64.33;98929.16;10428399;28;20556;-61
2021/08/07 02:03:20;;;;;;;7.13;3.10;;;;;;;14.14;64.76;98927.38;10438551;28;20081;-62
2021/08/07 02:08:22;;;;;;;8.10;2.60;;;;;;;14.25;64.47;98923.75;10452552;28;20053;-62
2021/08/07 02:13:25;;;;;;;11.75;2.40;;;;;;;14.36;64.49;98929.72;10452385;28;20280;-61
2021/08/07 02:18:27;;;;;;;5.68;2.30;;;;;;;14.34;64.38;98926.41;10450499;28;20084;-61
2021/08/07 02:23:29;;;;;;;7.00;2.33;;;;;;;14.43;64.38;98912.38;10451683;28;20084;-61
2021/08/07 02:28:31;;;;;;;6.43;2.30;;;;;;;14.54;64.01;98919.34;10453741;28;20053;-62
2021/08/07 02:33:36;;;;;;;5.30;1.88;;;;;;;14.49;64.05;98909.22;10461015;28;20083;-61
2021/08/07 02:38:37;;;;;;;5.35;2.20;;;;;;;14.52;64.03;98911.59;10460933;28;20236;-61
2021/08/07 02:43:40;;;;;;;6.97;2.33;;;;;;;14.55;64.16;98913.94;10459369;28;20088;-61
2021/08/07 02:48:43;;;;;;;7.35;2.05;;;;;;;14.57;64.06;98908.53;10458575;28;20076;-61
2021/08/07 02:53:45;;;;;;;8.07;2.13;;;;;;;14.61;64.12;98890.66;10460507;28;20044;-61
2021/08/07 02:58:47;;;;;;;5.82;2.45;;;;;;;14.45;64.15;98881.50;10459971;28;20486;-61
2021/08/07 03:03:49;;;;;;;7.65;2.38;;;;;;;14.35;64.65;98887.78;10455608;28;20072;-61
2021/08/07 03:08:51;;;;;;;6.70;2.72;;;;;;;14.52;64.41;98884.44;10452893;28;20591;-61
2021/08/07 03:13:53;;;;;;;5.13;2.08;;;;;;;14.56;64.17;98894.56;10451631;28;20154;-61
2021/08/07 03:18:54;;;;;;;8.95;1.92;;;;;;;14.52;64.10;98898.44;10429973;28;20077;-61
2021/08/07 03:23:56;;;;;;;7.75;2.35;;;;;;;14.48;64.40;98897.03;10425833;28;20072;-61
2021/08/07 03:28:58;;;;;;;7.82;2.28;;;;;;;14.43;64.26;98890.53;10410629;28;20120;-62
2021/08/07 03:34:00;;;;;;;5.63;2.63;;;;;;;14.09;65.01;98879.63;10408962;28;20133;-61
2021/08/07 03:39:04;;;;;;;7.22;2.17;;;;;;;13.92;65.45;98875.06;10410051;28;20057;-62
2021/08/07 03:44:05;;;;;;;7.50;2.40;;;;;;;13.94;65.85;98883.66;10409154;28;20050;-61
2021/08/07 03:49:07;;;;;;;7.15;2.10;;;;;;;14.12;65.55;98886.41;10430058;28;20045;-61
2021/08/07 03:54:09;;;;;;;7.43;2.17;;;;;;;14.21;65.08;98872.41;10433520;28;20128;-61
2021/08/07 03:59:11;;;;;;;8.23;2.25;;;;;;;14.06;65.35;98874.66;10450430;28;20084;-61
2021/08/07 04:04:12;;;;;;;8.30;2.38;;;;;;;14.00;65.44;98856.81;10450627;28;20520;-61
2021/08/07 04:09:15;;;;;;;8.25;2.25;;;;;;;13.96;65.32;98858.06;10432916;28;20152;-61
2021/08/07 04:14:16;;;;;;;6.60;2.40;;;;;;;13.79;65.66;98861.38;10408981;28;20424;-61
2021/08/07 04:19:18;;;;;;;6.93;2.75;;;;;;;13.75;65.82;98860.81;10408860;28;20152;-61
2021/08/07 04:24:20;;;;;;;5.93;2.33;;;;;;;13.87;65.90;98853.63;10408270;28;20081;-61
2021/08/07 04:29:22;;;;;;;5.22;1.88;;;;;;;14.08;65.59;98850.84;10408501;28;20123;-61
2021/08/07 04:34:24;;;;;;;12.02;2.47;;;;;;;14.17;65.19;98861.34;10408136;28;20077;-61
2021/08/07 04:39:25;;;;;;;6.47;2.05;;;;;;;14.24;65.03;98867.72;10424170;28;20095;-61
2021/08/07 04:44:27;;;;;;;11.95;3.30;;;;;;;14.29;64.63;98872.53;10447429;28;20132;-61
2021/08/07 04:49:29;;;;;;;5.85;2.60;;;;;;;14.19;65.12;98858.56;10447433;28;20037;-62
2021/08/07 04:54:31;;;;;;;7.35;2.42;;;;;;;14.67;64.40;98854.09;10448405;28;20098;-61
2021/08/07 04:59:33;;;;;;;4.50;2.35;;;;;;;14.83;63.96;98859.56;10448208;28;20545;-61
2021/08/07 05:04:34;;;;;;;6.88;2.28;;;;;;;15.21;63.12;98850.66;10448599;28;20132;-61
2021/08/07 05:09:36;;;;;;;8.25;2.00;;;;;;;15.87;61.44;98843.31;10447752;28;20562;-61
2021/08/07 05:14:38;;;;;;;4.50;1.80;;;;;;;16.02;60.74;98839.16;10446349;28;20037;-61
2021/08/07 05:19:40;;;;;;;9.05;1.95;;;;;;;16.42;60.13;98834.19;10446533;28;20098;-61
2021/08/07 05:24:41;;;;;;;6.50;2.58;;;;;;;16.45;59.59;98835.72;10447043;28;20509;-61
2021/08/07 05:29:44;;;;;;;7.68;2.30;;;;;;;16.39;59.71;98831.03;10447468;28;20080;-61
2021/08/07 05:34:45;;;;;;;4.53;1.73;;;;;;;16.34;60.02;98838.59;10447261;28;20085;-61
2021/08/07 05:39:47;;;;;;;5.75;1.90;;;;;;;16.34;59.98;98834.16;10445831;28;20080;-61
2021/08/07 05:44:49;;;;;;;6.03;2.08;;;;;;;16.28;59.92;98834.75;10446968;28;20084;-61
2021/08/07 05:49:50;;;;;;;6.60;2.20;;;;;;;16.39;60.08;98831.03;10447255;28;20044;-61
2021/08/07 05:54:53;;;;;;;6.10;2.10;;;;;;;16.33;60.37;98832.47;10446469;28;20053;-61
2021/08/07 05:59:54;;;;;;;5.70;2.00;;;;;;;16.68;59.81;98821.00;10446654;28;20047;-61
2021/08/07 06:04:56;;;;;;;8.88;2.20;;;;;;;16.88;58.90;98819.78;10440739;28;20164;-61
2021/08/07 06:09:58;;;;;;;5.90;2.30;;;;;;;16.92;59.16;98818.50;10438074;28;20088;-61
2021/08/07 06:14:59;;;;;;;4.35;2.08;;;;;;;17.28;58.85;98819.94;10444822;28;20049;-62
2021/08/07 06:20:02;;;;;;;6.40;2.08;;;;;;;17.53;58.45;98815.56;10443749;28;20456;-61
2021/08/07 06:25:04;;;;;;;6.07;2.10;;;;;;;17.58;58.50;98814.13;10444416;28;20136;-62
2021/08/07 06:30:07;;;;;;;3.88;2.00;;;;;;;17.74;58.04;98818.59;10439112;28;20125;-62
2021/08/07 06:35:09;;;;;;;7.75;2.28;;;;;;;18.05;57.47;98814.31;10403538;28;20505;-60
2021/08/07 06:40:12;;;;;;;5.82;2.10;;;;;;;18.14;57.21;98807.19;10402705;28;20129;-60
2021/08/07 06:45:13;;;;;;;7.95;2.20;;;;;;;18.20;57.35;98819.81;10402452;28;20081;-61
2021/08/07 06:50:15;;;;;;;9.88;2.20;;;;;;;18.19;56.97;98826.91;10402239;28;20045;-60
2021/08/07 06:55:17;;;;;;;7.28;2.13;;;;;;;18.21;57.28;98834.69;10402681;28;20092;-60
2021/08/07 07:00:18;;;;;;;6.55;2.40;;;;;;;18.07;57.26;98833.50;10402857;28;20037;-61
2021/08/07 07:05:20;;;;;;;4.78;1.75;;;;;;;17.91;57.98;98832.66;10427885;28;20052;-62
2021/08/07 07:10:22;;;;;;;6.22;1.80;;;;;;;18.11;58.07;98839.28;10441085;28;20501;-61
2021/08/07 07:15:24;;;;;;;6.15;2.08;;;;;;;18.27;57.34;98829.56;10443295;28;20155;-61
2021/08/07 07:20:26;;;;;;;4.13;1.90;;;;;;;18.62;56.89;98815.09;10451209;28;20056;-61
2021/08/07 07:25:27;;;;;;;7.00;2.00;;;;;;;18.67;56.05;98825.19;10449519;28;20053;-61
2021/08/07 07:30:30;;;;;;;3.85;1.83;;;;;;;18.74;55.98;98815.56;10450633;28;20086;-61
2021/08/07 07:35:32;;;;;;;3.83;1.80;;;;;;;18.87;54.76;98816.66;10450797;28;20049;-61
2021/08/07 07:40:34;;;;;;;7.07;2.53;;;;;;;18.93;55.22;98818.63;10438061;28;20049;-61
2021/08/07 07:45:36;;;;;;;4.68;1.80;;;;;;;19.22;54.00;98818.88;10409987;28;20482;-61
2021/08/07 07:50:39;;;;;;;6.55;2.10;;;;;;;19.26;54.71;98816.69;10408498;28;20048;-61
2021/08/07 07:55:41;;;;;;;4.53;1.70;;;;;;;19.51;54.02;98818.22;10408152;28;20473;-62
2021/08/07 08:00:43;;;;;;;4.38;1.60;;;;;;;19.69;53.04;98812.63;10430917;28;20128;-61
2021/08/07 08:05:45;;;;;;;5.80;1.88;;;;;;;20.05;52.85;98808.44;10424048;28;20053;-61
2021/08/07 08:10:47;;;;;;;5.63;1.80;;;;;;;20.31;52.31;98811.50;10449907;28;20140;-61
2021/08/07 08:15:48;;;;;;;5.72;1.80;;;;;;;20.39;51.38;98806.13;10449735;28;20128;-59
2021/08/07 08:20:50;;;;;;;6.53;1.90;;;;;;;20.66;51.00;98804.72;10450442;28;20072;-59
2021/08/07 08:25:52;;;;;;;9.45;2.00;;;;;;;21.05;50.54;98798.09;10449434;28;20564;-60
2021/08/07 08:30:55;;;;;;;5.95;2.10;;;;;;;21.46;50.23;98785.09;10449367;28;20080;-60
2021/08/07 08:35:56;;;;;;;7.38;1.80;;;;;;;21.45;49.74;98777.31;10448715;28;20049;-60
2021/08/07 08:41:00;;;;;;;6.07;1.75;;;;;;;21.55;49.41;98772.50;10449370;28;20088;-60
2021/08/07 08:46:02;;;;;;;5.05;1.80;;;;;;;21.63;49.26;98765.22;10424969;28;20108;-59
2021/08/07 08:51:08;;;;;;;5.45;1.58;;;;;;;22.20;47.99;98766.97;10446481;28;20041;-59
2021/08/07 08:56:10;;;;;;;5.85;1.60;;;;;;;22.61;47.53;98760.69;10448298;28;20132;-59
2021/08/07 09:01:12;;;;;;;7.32;1.60;;;;;;;22.64;46.86;98765.63;10448219;28;20080;-59
2021/08/07 09:06:14;;;;;;;6.45;1.83;;;;;;;22.93;46.56;98764.56;10447848;28;20497;-60
2021/08/07 09:11:22;;;;;;;5.95;1.63;;;;;;;23.40;46.19;98745.91;10448575;28;20076;-59
2021/08/07 09:16:23;;;;;;;5.82;1.75;;;;;;;23.56;45.35;98744.69;10447897;28;20055;-59
2021/08/07 09:21:25;;;;;;;4.55;1.60;;;;;;;23.61;45.18;98742.25;10445735;28;20080;-59
2021/08/07 09:26:27;;;;;;;6.00;1.50;;;;;;;23.21;46.52;98746.63;10414458;28;20485;-59
2021/08/07 09:31:29;;;;;;;4.10;1.50;;;;;;;23.37;46.16;98735.59;10406247;28;20447;-59
2021/08/07 09:36:48;;;;;;;5.25;1.77;;;;;;;23.33;45.03;98722.88;10441314;28;20060;-59
2021/08/07 09:41:57;;;;;;;6.47;1.77;;;;;;;23.42;46.03;98733.19;10445659;28;20133;-59
2021/08/07 09:47:06;;;;;;;;;;;;;;;23.21;45.06;98729.78;10447840;28;20124;-59
2021/08/07 09:52:09;;;;;;;6.53;1.70;;;;;;;23.59;45.14;98722.13;10446475;28;20337;-59
2021/08/07 09:57:24;;;;;;;5.20;1.48;;;;;;;23.71;43.66;98707.97;10446678;28;20156;-59
2021/08/07 10:02:32;;;;;;;4.70;1.52;;;;;;;24.05;42.54;98712.25;10445224;28;20053;-60
2021/08/07 10:07:34;;;;;;;6.50;1.80;;;;;;;23.54;43.31;98701.38;10423746;28;20132;-59
2021/08/07 10:12:45;;;;;;;4.22;1.60;;;;;;;22.95;43.67;98697.72;10446533;28;20072;-59
2021/08/07 10:17:48;;;;;;;5.75;1.70;;;;;;;22.55;45.87;98704.69;10446202;28;20124;-59
2021/08/07 10:22:52;;;;;;;7.32;1.63;;;;;;;22.11;46.04;98699.72;10445140;28;20127;-59
2021/08/07 10:27:59;;;;;;;6.13;1.70;;;;;;;21.90;48.37;98687.22;10431573;28;20049;-59
2021/08/07 10:33:02;;;;;;;5.05;2.17;;;;;;;21.64;46.75;98684.38;10404701;28;20129;-59
2021/08/07 10:38:04;;;;;;;6.03;1.63;;;;;;;21.46;49.12;98689.31;10403231;28;20148;-59
2021/08/07 10:43:07;;;;;;;5.13;1.70;;;;;;;21.72;48.76;98691.41;10405968;28;20076;-59
2021/08/07 10:48:33;;;;;;;6.95;1.70;;;;;;;22.28;47.01;98684.25;10423398;28;20135;-59
2021/08/07 10:53:38;;;;;;;6.20;1.60;;;;;;;22.30;44.99;98687.53;10452198;28;20041;-59
2021/08/07 10:58:45;;;;;;;7.43;1.70;;;;;;;22.67;44.15;98677.28;10453763;28;20048;-59
2021/08/07 11:04:02;;;;;;;5.13;1.50;;;;;;;23.10;43.00;98674.38;10452158;28;20064;-59
2021/08/07 11:09:21;;;;;;;6.25;1.63;;;;;;;23.63;42.77;98676.13;10452582;28;20045;-59
2021/08/07 11:14:24;;;;;;;7.80;1.60;;;;;;;24.05;42.40;98680.19;10432144;28;20387;-59
2021/08/07 11:19:48;;;;;;;4.40;1.48;;;;;;;24.16;40.73;98675.06;10422659;28;20057;-59
2021/08/07 11:24:59;;;;;;;5.20;1.63;;;;;;;24.11;41.23;98674.88;10452597;28;20053;-59
2021/08/07 11:30:27;;;;;;;6.72;1.73;;;;;;;24.13;40.28;98680.03;10452451;28;20429;-59
2021/08/07 11:35:38;;;;;;;4.60;1.50;;;;;;;24.33;39.64;98670.09;10450512;28;20045;-59
2021/08/07 11:40:54;;;;;;;3.40;1.30;;;;;;;23.95;39.85;98661.13;10452164;28;20095;-59
2021/08/07 11:45:58;;;;;;;7.38;1.60;;;;;;;24.06;40.31;98634.56;10451344;28;20473;-59
2021/08/07 11:51:03;;;;;;;4.93;1.60;;;;;;;24.18;40.72;98638.28;10429211;28;20073;-58
2021/08/07 11:56:12;;;;;;;6.53;1.92;;;;;;;23.94;40.96;98638.13;10447938;28;20378;-59
2021/08/07 12:01:15;;;;;;;5.50;1.73;;;;;;;23.89;40.96;98630.72;10448025;28;20520;-59
2021/08/07 12:06:37;;;;;;;7.53;2.22;;;;;;;24.18;40.59;98632.13;10445097;28;20099;-59
2021/08/07 12:11:40;;;;;;;5.80;1.75;;;;;;;23.89;41.59;98633.41;10445287;28;20472;-59
2021/08/07 12:16:42;;;;;;;7.25;1.70;;;;;;;24.02;41.01;98619.22;10448145;28;20156;-59
2021/08/07 12:21:45;;;;;;;6.00;1.70;;;;;;;24.39;40.45;98626.50;10447814;28;20094;-60
2021/08/07 12:26:54;;;;;;;7.70;2.35;;;;;;;24.16;39.43;98629.66;10437527;28;20205;-62
2021/08/07 12:32:00;;;;;;;6.28;1.73;;;;;;;23.90;39.17;98618.19;10447830;28;20455;-59
2021/08/07 12:37:02;;;;;;;6.30;1.63;;;;;;;23.58;40.72;98613.69;10446744;28;20201;-59
2021/08/07 12:42:04;;;;;;;5.10;1.70;;;;;;;23.77;40.18;98616.38;10447059;28;20079;-59
2021/08/07 12:47:06;;;;;;;4.45;1.77;;;;;;;23.99;40.20;98617.75;10447357;28;20080;-59
2021/08/07 12:52:17;;;;;;;4.88;1.70;;;;;;;23.90;40.24;98619.00;10413032;28;20081;-59
2021/08/07 12:57:27;;;;;;;5.63;2.05;;;;;;;24.47;39.83;98620.13;10447357;28;20533;-59
2021/08/07 13:02:30;;;;;;;5.68;1.80;;;;;;;24.34;39.67;98629.00;10447338;28;20077;-59
2021/08/07 13:07:39;;;;;;;5.72;1.60;;;;;;;24.15;39.25;98611.16;10451007;28;20095;-59
2021/08/07 13:12:42;;;;;;;7.10;1.80;;;;;;;23.86;39.90;98623.13;10472900;28;20089;-59
2021/08/07 13:17:56;;;;;;;6.63;1.65;;;;;;;23.68;40.42;98627.44;10486136;28;20469;-59
2021/08/07 13:23:00;;;;;;;5.82;1.70;;;;;;;23.72;39.73;98620.66;10445852;28;20132;-59
2021/08/07 13:28:16;;;;;;;4.57;1.70;;;;;;;23.83;39.56;98623.53;10446265;28;20489;-59
2021/08/07 13:33:32;;;;;;;6.13;1.60;;;;;;;24.05;39.32;98611.59;10446557;28;20041;-59
2021/08/07 13:38:34;;;;;;;5.65;1.70;;;;;;;23.93;39.72;98618.59;10442906;28;20045;-59
2021/08/07 13:43:37;;;;;;;3.75;1.40;;;;;;;23.91;39.66;98607.31;10442110;28;20571;-60
2021/08/07 13:48:38;;;;;;;4.88;1.58;;;;;;;24.10;40.02;98601.09;10442896;28;20049;-60
2021/08/07 13:53:40;;;;;;;7.70;1.85;;;;;;;23.89;40.58;98601.34;10444954;28;20056;-61
2021/08/07 13:58:42;;;;;;;4.90;1.83;;;;;;;23.38;40.68;98592.34;10445413;28;20053;-60
2021/08/07 14:03:44;;;;;;;5.13;1.80;;;;;;;23.05;42.02;98586.97;10444680;28;20076;-60
2021/08/07 14:08:49;;;;;;;4.85;1.60;;;;;;;23.20;41.51;98592.13;10442985;28;20052;-61
2021/08/07 14:13:52;;;;;;;4.53;1.77;;;;;;;23.06;41.71;98595.81;10433931;28;20542;-60
2021/08/07 14:18:54;;;;;;;8.15;1.80;;;;;;;23.04;41.14;98587.19;10429797;28;20087;-60
2021/08/07 14:23:55;;;;;;;7.00;1.60;;;;;;;23.09;41.81;98579.38;10444349;28;20489;-61
2021/08/07 14:28:57;;;;;;;4.97;1.60;;;;;;;23.29;41.28;98585.53;10451238;28;20049;-61
2021/08/07 14:34:02;;;;;;;4.18;1.55;;;;;;;23.47;41.03;98585.81;10444869;28;20440;-61
2021/08/07 14:39:04;;;;;;;4.65;1.58;;;;;;;23.49;40.70;98586.41;10432729;28;20060;-61
2021/08/07 14:44:06;;;;;;;3.65;1.48;;;;;;;23.10;40.66;98586.38;10453453;28;20135;-61
2021/08/07 14:49:11;;;;;;;4.30;1.67;;;;;;;23.18;41.24;98575.50;10452611;28;20045;-61
2021/08/07 14:54:14;;;;;;;4.40;1.40;;;;;;;23.64;40.37;98551.47;10447113;28;20081;-61
2021/08/07 14:59:16;;;;;;;5.43;1.58;;;;;;;24.03;39.97;98567.41;10433056;28;20049;-61
2021/08/07 15:04:18;;;;;;;6.35;1.38;;;;;;;24.07;40.21;98571.34;10451838;28;20092;-61
2021/08/07 15:09:22;;;;;;;6.47;1.63;;;;;;;23.99;39.41;98580.38;10452182;28;20130;-60
2021/08/07 15:14:24;;;;;;;6.25;1.60;;;;;;;24.08;39.49;98581.81;10451724;28;20500;-61
2021/08/07 15:19:26;;;;;;;4.57;1.60;;;;;;;23.85;40.13;98588.63;10451742;28;20063;-61
2021/08/07 15:24:28;;;;;;;6.47;1.80;;;;;;;23.34;41.20;98588.44;10449778;28;20061;-60
2021/08/07 15:29:29;;;;;;;4.70;1.60;;;;;;;23.30;41.82;98611.22;10432274;28;20045;-61
2021/08/07 15:34:31;;;;;;;4.40;1.70;;;;;;;22.93;42.92;98617.94;10449985;28;20087;-60
2021/08/07 15:39:33;;;;;;;6.35;1.92;;;;;;;22.78;45.52;98621.78;10450063;28;20049;-61
2021/08/07 15:44:35;;;;;;;5.55;1.90;;;;;;;22.96;45.28;98604.22;10450546;28;20086;-61
2021/08/07 15:49:37;;;;;;;6.15;1.60;;;;;;;23.64;44.11;98597.69;10450515;28;20080;-61
2021/08/07 15:54:39;;;;;;;4.95;1.60;;;;;;;23.72;43.87;98583.28;10437132;28;20051;-61
2021/08/07 15:59:40;;;;;;;6.68;1.70;;;;;;;23.54;43.45;98585.78;10428184;28;20061;-61
2021/08/07 16:04:42;;;;;;;7.38;1.50;;;;;;;23.39;42.67;98578.78;10443692;28;20049;-61
2021/08/07 16:09:45;;;;;;;2.65;1.20;;;;;;;23.21;42.04;98570.56;10448699;28;20045;-60
2021/08/07 16:14:47;;;;;;;4.28;1.40;;;;;;;23.29;42.40;98562.38;10449815;28;20044;-61
2021/08/07 16:19:49;;;;;;;4.35;1.45;;;;;;;23.35;42.37;98563.41;10441390;28;20045;-61
2021/08/07 16:24:51;;;;;;;3.58;1.50;;;;;;;23.42;41.52;98550.91;10446818;28;20098;-61
2021/08/07 16:29:55;;;;;;;4.95;1.63;;;;;;;23.45;42.59;98551.28;10452453;28;20095;-60
2021/08/07 16:34:57;;;;;;;3.97;1.40;;;;;;;23.27;42.59;98539.56;10446729;28;20405;-60
2021/08/07 16:40:00;;;;;;;5.18;2.00;;;;;;;23.11;42.90;98513.31;10444386;28;20041;-61
2021/08/07 16:45:03;;;;;;;4.18;1.70;;;;;;;22.73;43.83;98505.09;10446801;28;20561;-60
2021/08/07 16:50:05;;;;;;;3.47;1.35;;;;;;;22.84;43.60;98506.34;10447872;28;20475;-62
2021/08/07 16:55:08;;;;;;;4.22;1.60;;;;;;;23.20;43.05;98520.09;10448658;28;20072;-61
2021/08/07 17:00:10;;;;;;;5.38;1.55;;;;;;;23.40;42.70;98515.56;10447760;28;20067;-61
2021/08/07 17:05:12;;;;;;;6.38;2.00;;;;;;;23.47;42.72;98516.41;10446677;28;20145;-61
2021/08/07 17:10:13;;;;;;;4.95;1.80;;;;;;;23.47;41.83;98519.09;10447560;28;20045;-61
2021/08/07 17:15:19;;;;;;;10.25;2.00;;;;;;;23.30;42.72;98536.50;10439029;28;20042;-61
2021/08/07 17:20:29;;;;;;;5.85;2.00;;;;;;;23.04;42.50;98542.69;10435339;28;20083;-60
2021/08/07 17:25:34;;;;;;;5.03;2.00;;;;;;;22.86;42.73;98561.09;10445835;28;20052;-60
2021/08/07 17:30:36;;;;;;;6.85;2.40;;;;;;;22.55;43.68;98563.47;10446690;28;20114;-60
2021/08/07 17:35:38;;;;;;;4.70;2.03;;;;;;;22.10;45.02;98574.75;10446849;28;20102;-60
2021/08/07 17:40:40;;;;;;;5.50;1.90;;;;;;;21.78;46.12;98563.69;10446246;28;20045;-60
2021/08/07 17:45:43;;;;;;;2.45;1.20;;;;;;;21.27;47.21;98570.28;10445540;28;20132;-60
2021/08/07 17:50:46;;;;;;;1.83;1.20;;;;;;;20.92;48.48;98595.94;10442961;28;20045;-59
2021/08/07 17:55:47;;;;;;;3.13;1.38;;;;;;;20.91;48.86;98615.53;10436074;28;20072;-59
2021/08/07 18:00:49;;;;;;;2.83;1.58;;;;;;;20.71;49.77;98632.28;10442573;28;20052;-59
2021/08/07 18:05:51;;;;;;;3.63;1.77;;;;;;;20.59;50.41;98625.78;10440382;28;20057;-59
2021/08/07 18:10:53;;;;;;;6.05;3.13;;;;;;;20.43;51.22;98621.50;10430234;28;20041;-59
2021/08/07 18:15:55;;;;;;;3.67;1.42;;;;;;;20.20;51.82;98637.53;10429481;28;20382;-59
2021/08/07 18:20:58;;;;;;;5.38;2.20;;;;;;;19.83;52.90;98650.88;10444953;28;20080;-59
2021/08/07 18:26:07;;;;;;;3.90;1.60;;;;;;;19.52;54.17;98644.03;10430766;28;20091;-63
2021/08/07 18:31:11;;;;;;;3.40;1.50;;;;;;;19.37;54.93;98642.16;10441717;28;20056;-62
2021/08/07 18:36:17;;;;;;;4.00;1.40;;;;;;;19.18;55.47;98655.88;10457321;28;20546;-63
2021/08/07 18:41:19;;;;;;;2.92;1.35;;;;;;;18.94;55.76;98663.97;10450828;28;20072;-62
2021/08/07 18:46:21;;;;;;;2.70;1.20;;;;;;;18.93;55.58;98672.09;10444276;28;20114;-63
2021/08/07 18:51:23;;;;;;;5.43;1.70;;;;;;;18.88;56.34;98677.91;10436000;28;20053;-62
2021/08/07 18:56:25;;;;;;;3.22;1.40;;;;;;;19.01;55.96;98672.06;10435129;28;20106;-62
2021/08/07 19:01:42;;;;;;;3.35;1.30;;;;;;;19.01;56.29;98688.75;10437838;28;20060;-62
2021/08/07 19:06:45;;;;;;;4.35;1.30;;;;;;;19.05;56.17;98718.44;10472007;28;20049;-63
2021/08/07 19:11:47;;;;;;;3.33;1.70;;;;;;;19.17;56.25;98740.88;10459916;28;20048;-62
2021/08/07 19:16:49;;;;;;;3.47;1.42;;;;;;;19.04;56.24;98764.47;10435379;28;20064;-63
2021/08/07 19:21:51;;;;;;;2.42;1.45;;;;;;;19.09;56.11;98767.44;10444882;28;20499;-63
2021/08/07 19:26:53;;;;;;;3.42;1.38;;;;;;;19.17;55.91;98759.44;10424316;28;20343;-62
2021/08/07 19:31:55;;;;;;;5.85;1.70;;;;;;;19.23;57.61;98774.66;10449393;28;20055;-62
2021/08/07 19:36:57;;;;;;;11.13;2.65;;;;;;;19.08;59.10;98808.16;10448427;28;20078;-62
2021/08/07 19:41:59;;;;;;;7.40;2.33;;;;;;;18.87;60.80;98800.75;10443457;28;20057;-62
2021/08/07 19:47:01;;;;;;;7.97;2.20;;;;;;;18.65;61.12;98823.53;10443237;28;20092;-62
2021/08/07 19:52:03;;;;;;;3.88;1.50;;;;;;;18.36;60.86;98786.19;10461089;28;20439;-62
2021/08/07 19:57:05;;;;;;;6.28;1.30;;;;;;;18.18;61.67;98798.75;10463524;28;20045;-62
2021/08/07 20:02:07;;;;;;;2.60;1.30;;;;;;;17.79;62.24;98837.47;10468712;28;20866;-62
2021/08/07 20:07:09;;;;;;;4.43;1.60;;;;;;;17.69;62.42;98837.59;10457504;28;20041;-62
2021/08/07 20:12:11;;;;;;;1.83;1.23;;;;;;;17.40;61.94;98833.75;10465776;28;20087;-63
2021/08/07 20:17:13;;;;;;;2.53;1.10;;;;;;;17.27;61.67;98842.09;10458801;28;20099;-62
2021/08/07 20:22:15;;;;;;;2.30;1.15;;;;;;;17.20;61.57;98827.84;10428610;28;20049;-62
2021/08/07 20:27:17;;;;;;;3.80;1.30;;;;;;;17.11;61.71;98834.09;10473237;28;20155;-62
2021/08/07 20:32:19;;;;;;;3.25;1.52;;;;;;;17.05;62.41;98834.75;10453299;28;20044;-62
2021/08/07 20:37:30;;;;;;;3.28;1.27;;;;;;;17.00;62.53;98826.44;10466879;28;20609;-62
2021/08/07 20:42:32;;;;;;;7.72;1.48;;;;;;;17.01;62.94;98846.59;10451751;28;20473;-62
2021/08/07 20:47:35;;;;;;;4.28;1.38;;;;;;;16.92;63.07;98860.75;10481294;28;20045;-62
2021/08/07 20:52:36;;;;;;;3.88;1.40;;;;;;;16.86;62.95;98875.41;10460176;28;20087;-62
2021/08/07 20:57:38;;;;;;;3.97;1.30;;;;;;;16.92;63.72;98866.03;10461579;28;20154;-62
2021/08/07 21:02:41;;;;;;;4.93;1.50;;;;;;;16.96;63.14;98862.91;10478578;28;20550;-63
2021/08/07 21:07:43;;;;;;;7.38;1.80;;;;;;;16.88;63.65;98875.25;10454800;28;20575;-63
2021/08/07 21:12:45;;;;;;;6.60;2.67;;;;;;;16.82;63.80;98876.72;10463415;28;20159;-63
2021/08/07 21:17:55;;;;;;;7.85;1.90;;;;;;;16.70;64.47;98850.72;10475172;28;20084;-63
2021/08/07 21:22:57;;;;;;;5.10;1.45;;;;;;;16.65;64.26;98848.56;10471791;28;20585;-62
2021/08/07 21:27:59;;;;;;;6.78;1.70;;;;;;;16.50;64.64;98830.81;10458741;28;20512;-62
2021/08/07 21:33:01;;;;;;;4.63;1.40;;;;;;;16.43;64.36;98837.66;10466058;28;20048;-62
2021/08/07 21:38:03;;;;;;;4.60;1.20;;;;;;;16.45;64.43;98852.38;10456405;28;20324;-62
2021/08/07 21:43:08;;;;;;;3.17;1.42;;;;;;;16.34;64.16;98851.78;10460830;28;20045;-63
2021/08/07 21:48:10;;;;;;;5.35;1.58;;;;;;;16.31;64.70;98855.56;10455942;28;20160;-63
2021/08/07 21:53:14;;;;;;;3.95;1.48;;;;;;;16.37;65.03;98859.38;10467962;28;20048;-62
2021/08/07 21:58:16;;;;;;;3.83;1.50;;;;;;;16.35;64.47;98880.66;10468027;28;20040;-63
2021/08/07 22:03:19;;;;;;;4.13;1.13;;;;;;;16.17;65.05;98885.97;10452597;28;20425;-63
2021/08/07 22:08:21;;;;;;;6.28;1.50;;;;;;;16.32;65.39;98877.50;10439551;28;20079;-62
2021/08/07 22:13:23;;;;;;;4.85;1.50;;;;;;;16.36;65.04;98892.03;10463221;28;20505;-62
2021/08/07 22:18:25;;;;;;;4.93;1.67;;;;;;;16.35;65.14;98883.28;10475159;28;20048;-62
2021/08/07 22:23:28;;;;;;;5.40;1.55;;;;;;;16.30;64.95;98882.94;10465864;28;20052;-63
2021/08/07 22:28:30;;;;;;;3.95;1.60;;;;;;;16.34;65.82;98884.28;10460018;28;20045;-67
2021/08/07 22:33:32;;;;;;;4.93;1.60;;;;;;;16.40;65.57;98881.03;10462764;28;20076;-62
2021/08/07 22:38:34;;;;;;;5.28;1.50;;;;;;;16.40;65.46;98877.56;10466404;28;20049;-62
2021/08/07 22:43:37;;;;;;;4.15;1.55;;;;;;;16.29;65.30;98901.53;10466774;28;20057;-62
2021/08/07 22:48:39;;;;;;;4.60;1.60;;;;;;;16.20;66.04;98898.81;10467044;28;20044;-63
2021/08/07 22:53:41;;;;;;;3.13;1.20;;;;;;;16.18;65.63;98907.91;10468733;28;20136;-62
2021/08/07 22:58:43;;;;;;;3.92;1.65;;;;;;;16.16;65.85;98905.38;10459004;28;20111;-63
2021/08/07 23:03:44;;;;;;;6.28;1.60;;;;;;;16.08;66.00;98907.16;10449685;28;20532;-63
2021/08/07 23:08:46;;;;;;;6.75;1.80;;;;;;;15.82;66.21;98917.59;10466942;28;20059;-63
2021/08/07 23:13:48;;;;;;;5.40;1.63;;;;;;;15.80;66.20;98931.88;10478995;28;20108;-62
2021/08/07 23:18:50;;;;;;;8.00;1.92;;;;;;;15.70;66.49;98928.47;10464401;28;20068;-63
2021/08/07 23:23:51;;;;;;;3.67;1.70;;;;;;;15.68;66.94;98935.72;10467461;28;20162;-62
2021/08/07 23:28:53;;;;;;;6.53;2.00;;;;;;;15.60;66.76;98936.47;10461954;28;20149;-62